sensor_id;sensor_type;location;lat;lon;timestamp;pressure;altitude;pressure_sealevel;temperature;humidity
73024;BME280;61199;47.526;8.538;2023-03-01T00:01:19;96953.41;;;2.65;61.89
73024;BME280;61199;47.526;8.538;2023-03-01T00:03:46;96954.63;;;2.58;61.99
73024;BME280;61199;47.526;8.538;2023-03-01T00:06:14;96959.06;;;2.56;61.74
73024;BME280;61199;47.526;8.538;2023-03-01T00:08:41;96950.19;;;2.43;62.49
73024;BME280;61199;47.526;8.538;2023-03-01T00:13:41;96941.63;;;2.42;62.01
73024;BME280;61199;47.526;8.538;2023-03-01T00:16:10;96947.53;;;2.44;62.12
73024;BME280;61199;47.526;8.538;2023-03-01T00:18:37;96944.41;;;2.38;62.43
73024;BME280;61199;47.526;8.538;2023-03-01T00:21:03;96948.78;;;2.54;62.08
73024;BME280;61199;47.526;8.538;2023-03-01T00:23:30;96941.19;;;2.33;62.27
73024;BME280;61199;47.526;8.538;2023-03-01T00:25:57;96948.19;;;2.12;63.08
73024;BME280;61199;47.526;8.538;2023-03-01T00:28:23;96940.13;;;2.37;62.64
73024;BME280;61199;47.526;8.538;2023-03-01T00:30:49;96934.31;;;2.50;62.16
73024;BME280;61199;47.526;8.538;2023-03-01T00:33:17;96927.50;;;2.66;61.60
73024;BME280;61199;47.526;8.538;2023-03-01T00:35:44;96931.84;;;2.66;61.67
73024;BME280;61199;47.526;8.538;2023-03-01T00:38:10;96930.44;;;2.42;62.19
73024;BME280;61199;47.526;8.538;2023-03-01T00:40:37;96928.59;;;2.44;62.45
73024;BME280;61199;47.526;8.538;2023-03-01T00:43:03;96926.94;;;2.43;62.72
73024;BME280;61199;47.526;8.538;2023-03-01T00:45:30;96924.31;;;2.61;62.22
73024;BME280;61199;47.526;8.538;2023-03-01T00:47:57;96927.66;;;2.28;62.72
73024;BME280;61199;47.526;8.538;2023-03-01T00:50:23;96935.16;;;2.51;62.53
73024;BME280;61199;47.526;8.538;2023-03-01T00:52:54;96918.97;;;2.64;61.51
73024;BME280;61199;47.526;8.538;2023-03-01T00:55:21;96917.53;;;2.76;61.81
73024;BME280;61199;47.526;8.538;2023-03-01T00:57:47;96915.56;;;2.80;61.73
73024;BME280;61199;47.526;8.538;2023-03-01T01:00:14;96920.13;;;2.92;61.16
73024;BME280;61199;47.526;8.538;2023-03-01T01:02:42;96916.00;;;3.05;60.31
73024;BME280;61199;47.526;8.538;2023-03-01T01:05:08;96912.72;;;3.02;60.73
73024;BME280;61199;47.526;8.538;2023-03-01T01:07:35;96918.75;;;3.02;60.50
73024;BME280;61199;47.526;8.538;2023-03-01T01:10:02;96913.81;;;3.15;60.32
73024;BME280;61199;47.526;8.538;2023-03-01T01:12:28;96907.94;;;3.11;60.55
73024;BME280;61199;47.526;8.538;2023-03-01T01:14:55;96906.94;;;3.14;59.94
73024;BME280;61199;47.526;8.538;2023-03-01T01:17:21;96907.31;;;3.06;60.86
73024;BME280;61199;47.526;8.538;2023-03-01T01:19:48;96902.00;;;3.09;60.51
73024;BME280;61199;47.526;8.538;2023-03-01T01:22:14;96901.69;;;3.15;60.58
73024;BME280;61199;47.526;8.538;2023-03-01T01:24:41;96893.16;;;3.30;60.08
73024;BME280;61199;47.526;8.538;2023-03-01T01:27:07;96893.09;;;3.15;60.48
73024;BME280;61199;47.526;8.538;2023-03-01T01:29:34;96890.00;;;3.24;60.13
73024;BME280;61199;47.526;8.538;2023-03-01T01:32:00;96880.41;;;3.10;60.40
73024;BME280;61199;47.526;8.538;2023-03-01T01:34:26;96877.59;;;3.15;60.15
73024;BME280;61199;47.526;8.538;2023-03-01T01:36:53;96874.91;;;3.16;60.58
73024;BME280;61199;47.526;8.538;2023-03-01T01:39:21;96881.59;;;3.20;60.63
73024;BME280;61199;47.526;8.538;2023-03-01T01:41:48;96879.28;;;3.31;59.84
73024;BME280;61199;47.526;8.538;2023-03-01T01:44:16;96876.69;;;3.31;60.19
73024;BME280;61199;47.526;8.538;2023-03-01T01:46:53;96877.75;;;3.27;60.36
73024;BME280;61199;47.526;8.538;2023-03-01T01:49:29;96876.94;;;3.27;60.04
73024;BME280;61199;47.526;8.538;2023-03-01T01:52:10;96876.56;;;3.17;60.11
73024;BME280;61199;47.526;8.538;2023-03-01T01:57:18;96872.78;;;3.07;61.05
73024;BME280;61199;47.526;8.538;2023-03-01T01:59:50;96862.88;;;3.15;60.89
73024;BME280;61199;47.526;8.538;2023-03-01T02:02:18;96866.38;;;3.14;60.92
73024;BME280;61199;47.526;8.538;2023-03-01T02:04:48;96856.72;;;3.18;60.34
73024;BME280;61199;47.526;8.538;2023-03-01T02:07:25;96859.72;;;3.10;60.46
73024;BME280;61199;47.526;8.538;2023-03-01T02:09:52;96860.91;;;3.20;60.34
73024;BME280;61199;47.526;8.538;2023-03-01T02:12:22;96852.53;;;3.15;61.17
73024;BME280;61199;47.526;8.538;2023-03-01T02:14:49;96850.66;;;3.34;60.12
73024;BME280;61199;47.526;8.538;2023-03-01T02:17:16;96843.38;;;3.25;60.53
73024;BME280;61199;47.526;8.538;2023-03-01T02:22:22;96831.22;;;3.43;60.38
73024;BME280;61199;47.526;8.538;2023-03-01T02:28:02;96835.66;;;3.24;60.45
73024;BME280;61199;47.526;8.538;2023-03-01T02:30:32;96830.78;;;3.35;60.27
73024;BME280;61199;47.526;8.538;2023-03-01T02:33:00;96833.34;;;3.19;60.81
73024;BME280;61199;47.526;8.538;2023-03-01T02:35:35;96829.63;;;3.40;60.33
73024;BME280;61199;47.526;8.538;2023-03-01T02:38:03;96828.78;;;3.55;60.01
73024;BME280;61199;47.526;8.538;2023-03-01T02:40:33;96827.41;;;3.65;59.78
73024;BME280;61199;47.526;8.538;2023-03-01T02:43:00;96816.19;;;3.65;59.83
73024;BME280;61199;47.526;8.538;2023-03-01T02:45:29;96814.28;;;3.68;59.47
73024;BME280;61199;47.526;8.538;2023-03-01T02:47:56;96816.69;;;3.71;59.47
73024;BME280;61199;47.526;8.538;2023-03-01T02:53:09;96814.50;;;3.79;59.41
73024;BME280;61199;47.526;8.538;2023-03-01T02:55:37;96813.34;;;3.69;59.61
73024;BME280;61199;47.526;8.538;2023-03-01T02:58:04;96811.84;;;3.65;59.84
73024;BME280;61199;47.526;8.538;2023-03-01T03:00:36;96810.69;;;3.71;59.75
73024;BME280;61199;47.526;8.538;2023-03-01T03:03:06;96806.31;;;3.71;59.86
73024;BME280;61199;47.526;8.538;2023-03-01T03:05:33;96804.34;;;3.61;60.12
73024;BME280;61199;47.526;8.538;2023-03-01T03:08:01;96801.16;;;3.71;60.13
73024;BME280;61199;47.526;8.538;2023-03-01T03:10:30;96794.72;;;3.78;60.23
73024;BME280;61199;47.526;8.538;2023-03-01T03:12:59;96795.97;;;3.71;60.23
73024;BME280;61199;47.526;8.538;2023-03-01T03:15:27;96804.84;;;3.67;60.12
73024;BME280;61199;47.526;8.538;2023-03-01T03:17:57;96793.63;;;3.67;60.37
73024;BME280;61199;47.526;8.538;2023-03-01T03:20:26;96788.38;;;3.68;59.96
73024;BME280;61199;47.526;8.538;2023-03-01T03:22:55;96790.72;;;3.73;60.32
73024;BME280;61199;47.526;8.538;2023-03-01T03:25:22;96792.03;;;3.80;59.75
73024;BME280;61199;47.526;8.538;2023-03-01T03:27:50;96797.63;;;3.72;60.20
73024;BME280;61199;47.526;8.538;2023-03-01T03:30:25;96788.03;;;3.74;59.85
73024;BME280;61199;47.526;8.538;2023-03-01T03:32:52;96790.38;;;3.79;59.67
73024;BME280;61199;47.526;8.538;2023-03-01T03:35:40;96798.66;;;3.70;60.00
73024;BME280;61199;47.526;8.538;2023-03-01T03:38:08;96797.88;;;3.68;60.19
73024;BME280;61199;47.526;8.538;2023-03-01T03:40:44;96792.56;;;3.71;60.63
73024;BME280;61199;47.526;8.538;2023-03-01T03:43:17;96788.94;;;3.73;60.25
73024;BME280;61199;47.526;8.538;2023-03-01T03:45:45;96794.13;;;3.58;60.54
73024;BME280;61199;47.526;8.538;2023-03-01T03:48:12;96796.41;;;3.64;60.24
73024;BME280;61199;47.526;8.538;2023-03-01T03:50:39;96794.06;;;3.59;60.75
73024;BME280;61199;47.526;8.538;2023-03-01T03:53:11;96788.44;;;3.51;61.01
73024;BME280;61199;47.526;8.538;2023-03-01T03:55:38;96782.78;;;3.60;61.03
73024;BME280;61199;47.526;8.538;2023-03-01T03:58:07;96787.94;;;3.60;60.23
73024;BME280;61199;47.526;8.538;2023-03-01T04:00:40;96788.69;;;3.62;60.28
73024;BME280;61199;47.526;8.538;2023-03-01T04:03:07;96790.22;;;3.66;60.60
73024;BME280;61199;47.526;8.538;2023-03-01T04:05:35;96791.13;;;3.65;60.97
73024;BME280;61199;47.526;8.538;2023-03-01T04:08:02;96779.09;;;3.80;60.09
73024;BME280;61199;47.526;8.538;2023-03-01T04:10:30;96780.78;;;3.65;60.97
73024;BME280;61199;47.526;8.538;2023-03-01T04:12:57;96778.00;;;3.84;60.28
73024;BME280;61199;47.526;8.538;2023-03-01T04:15:25;96780.66;;;3.82;60.28
73024;BME280;61199;47.526;8.538;2023-03-01T04:17:54;96773.41;;;3.73;60.24
73024;BME280;61199;47.526;8.538;2023-03-01T04:20:23;96781.06;;;3.90;60.32
73024;BME280;61199;47.526;8.538;2023-03-01T04:22:57;96775.75;;;3.93;59.91
73024;BME280;61199;47.526;8.538;2023-03-01T04:25:24;96776.38;;;3.97;59.16
73024;BME280;61199;47.526;8.538;2023-03-01T04:27:51;96776.00;;;3.89;59.94
73024;BME280;61199;47.526;8.538;2023-03-01T04:30:17;96773.50;;;3.72;60.75
73024;BME280;61199;47.526;8.538;2023-03-01T04:32:43;96768.84;;;3.47;60.85
73024;BME280;61199;47.526;8.538;2023-03-01T04:35:10;96770.44;;;3.65;60.86
73024;BME280;61199;47.526;8.538;2023-03-01T04:37:36;96763.22;;;3.70;60.58
73024;BME280;61199;47.526;8.538;2023-03-01T04:40:03;96766.22;;;3.78;60.55
73024;BME280;61199;47.526;8.538;2023-03-01T04:42:42;96771.72;;;3.72;60.40
73024;BME280;61199;47.526;8.538;2023-03-01T04:45:09;96778.06;;;3.82;60.47
73024;BME280;61199;47.526;8.538;2023-03-01T04:47:43;96777.56;;;3.91;60.46
73024;BME280;61199;47.526;8.538;2023-03-01T04:50:10;96772.03;;;3.97;59.85
73024;BME280;61199;47.526;8.538;2023-03-01T04:52:40;96769.19;;;4.02;59.97
73024;BME280;61199;47.526;8.538;2023-03-01T04:55:07;96767.19;;;4.07;59.79
73024;BME280;61199;47.526;8.538;2023-03-01T04:57:34;96762.00;;;3.91;59.69
73024;BME280;61199;47.526;8.538;2023-03-01T05:00:01;96767.03;;;3.94;60.52
73024;BME280;61199;47.526;8.538;2023-03-01T05:03:22;96755.31;;;4.03;60.24
73024;BME280;61199;47.526;8.538;2023-03-01T05:05:46;96763.25;;;4.00;59.74
73024;BME280;61199;47.526;8.538;2023-03-01T05:08:13;96765.84;;;3.39;61.95
73024;BME280;61199;47.526;8.538;2023-03-01T05:10:45;96761.63;;;3.52;61.64
73024;BME280;61199;47.526;8.538;2023-03-01T05:13:13;96761.56;;;3.69;61.32
73024;BME280;61199;47.526;8.538;2023-03-01T05:15:39;96757.94;;;3.87;60.44
73024;BME280;61199;47.526;8.538;2023-03-01T05:18:06;96761.78;;;3.80;60.97
73024;BME280;61199;47.526;8.538;2023-03-01T05:20:37;96759.59;;;3.88;60.78
73024;BME280;61199;47.526;8.538;2023-03-01T05:23:04;96750.09;;;3.89;60.91
73024;BME280;61199;47.526;8.538;2023-03-01T05:25:33;96751.19;;;3.69;60.80
73024;BME280;61199;47.526;8.538;2023-03-01T05:28:01;96750.50;;;3.81;60.65
73024;BME280;61199;47.526;8.538;2023-03-01T05:30:32;96750.56;;;3.95;60.58
73024;BME280;61199;47.526;8.538;2023-03-01T05:32:59;96743.50;;;3.83;60.93
73024;BME280;61199;47.526;8.538;2023-03-01T05:35:26;96744.16;;;3.71;61.13
73024;BME280;61199;47.526;8.538;2023-03-01T05:37:52;96746.97;;;3.82;60.49
73024;BME280;61199;47.526;8.538;2023-03-01T05:40:22;96744.38;;;3.98;60.23
73024;BME280;61199;47.526;8.538;2023-03-01T05:42:53;96742.69;;;4.12;59.92
73024;BME280;61199;47.526;8.538;2023-03-01T05:45:21;96742.41;;;4.17;59.92
73024;BME280;61199;47.526;8.538;2023-03-01T05:47:48;96729.25;;;4.20;59.56
73024;BME280;61199;47.526;8.538;2023-03-01T05:50:21;96728.25;;;4.22;59.67
73024;BME280;61199;47.526;8.538;2023-03-01T05:53:15;96724.28;;;4.31;60.12
73024;BME280;61199;47.526;8.538;2023-03-01T05:55:43;96718.44;;;4.27;59.67
73024;BME280;61199;47.526;8.538;2023-03-01T05:58:12;96716.03;;;4.24;60.17
73024;BME280;61199;47.526;8.538;2023-03-01T06:00:40;96705.75;;;4.23;59.76
73024;BME280;61199;47.526;8.538;2023-03-01T06:03:09;96708.59;;;4.18;60.26
73024;BME280;61199;47.526;8.538;2023-03-01T06:05:37;96716.50;;;4.17;59.80
73024;BME280;61199;47.526;8.538;2023-03-01T06:08:03;96717.78;;;4.24;60.36
73024;BME280;61199;47.526;8.538;2023-03-01T06:10:30;96717.31;;;4.17;60.07
73024;BME280;61199;47.526;8.538;2023-03-01T06:12:56;96709.66;;;4.16;60.19
73024;BME280;61199;47.526;8.538;2023-03-01T06:15:23;96713.13;;;4.15;60.20
73024;BME280;61199;47.526;8.538;2023-03-01T06:17:50;96711.56;;;4.12;60.56
73024;BME280;61199;47.526;8.538;2023-03-01T06:20:20;96715.16;;;4.10;60.49
73024;BME280;61199;47.526;8.538;2023-03-01T06:22:47;96703.75;;;3.98;61.17
73024;BME280;61199;47.526;8.538;2023-03-01T06:25:17;96709.94;;;3.66;61.88
73024;BME280;61199;47.526;8.538;2023-03-01T06:27:45;96707.88;;;3.87;61.69
73024;BME280;61199;47.526;8.538;2023-03-01T06:30:13;96707.06;;;4.00;61.32
73024;BME280;61199;47.526;8.538;2023-03-01T06:32:40;96706.66;;;4.08;60.86
73024;BME280;61199;47.526;8.538;2023-03-01T06:35:09;96712.44;;;3.97;60.94
73024;BME280;61199;47.526;8.538;2023-03-01T06:37:37;96709.53;;;3.88;61.20
73024;BME280;61199;47.526;8.538;2023-03-01T06:40:05;96708.38;;;3.93;61.63
73024;BME280;61199;47.526;8.538;2023-03-01T06:42:35;96712.75;;;3.77;61.78
73024;BME280;61199;47.526;8.538;2023-03-01T06:45:03;96707.69;;;3.60;62.44
73024;BME280;61199;47.526;8.538;2023-03-01T06:47:29;96722.38;;;3.60;62.32
73024;BME280;61199;47.526;8.538;2023-03-01T06:49:56;96722.38;;;3.60;62.76
73024;BME280;61199;47.526;8.538;2023-03-01T06:52:22;96715.13;;;3.51;62.36
73024;BME280;61199;47.526;8.538;2023-03-01T06:54:48;96721.06;;;3.37;63.71
73024;BME280;61199;47.526;8.538;2023-03-01T06:57:15;96725.47;;;3.66;66.20
73024;BME280;61199;47.526;8.538;2023-03-01T06:59:41;96721.59;;;3.73;63.28
73024;BME280;61199;47.526;8.538;2023-03-01T07:02:11;96706.84;;;3.75;62.65
73024;BME280;61199;47.526;8.538;2023-03-01T07:04:38;96715.53;;;3.74;62.66
73024;BME280;61199;47.526;8.538;2023-03-01T07:07:05;96720.44;;;3.79;62.68
73024;BME280;61199;47.526;8.538;2023-03-01T07:09:32;96719.16;;;3.86;62.66
73024;BME280;61199;47.526;8.538;2023-03-01T07:11:58;96730.25;;;3.88;62.38
73024;BME280;61199;47.526;8.538;2023-03-01T07:14:25;96725.41;;;3.97;62.45
73024;BME280;61199;47.526;8.538;2023-03-01T07:16:52;96729.41;;;4.03;62.11
73024;BME280;61199;47.526;8.538;2023-03-01T07:19:19;96715.84;;;4.13;61.62
73024;BME280;61199;47.526;8.538;2023-03-01T07:21:45;96716.97;;;4.23;61.24
73024;BME280;61199;47.526;8.538;2023-03-01T07:24:12;96718.16;;;4.32;61.24
73024;BME280;61199;47.526;8.538;2023-03-01T07:26:38;96718.81;;;4.35;60.77
73024;BME280;61199;47.526;8.538;2023-03-01T07:29:07;96711.25;;;4.32;60.72
73024;BME280;61199;47.526;8.538;2023-03-01T07:31:34;96711.47;;;4.14;61.73
73024;BME280;61199;47.526;8.538;2023-03-01T07:34:00;96718.03;;;4.19;60.99
73024;BME280;61199;47.526;8.538;2023-03-01T07:36:27;96722.22;;;3.92;62.17
73024;BME280;61199;47.526;8.538;2023-03-01T07:38:54;96716.88;;;3.95;61.47
73024;BME280;61199;47.526;8.538;2023-03-01T07:41:21;96711.00;;;4.07;61.70
73024;BME280;61199;47.526;8.538;2023-03-01T07:43:48;96705.81;;;4.07;61.44
73024;BME280;61199;47.526;8.538;2023-03-01T07:46:14;96715.00;;;3.83;62.29
73024;BME280;61199;47.526;8.538;2023-03-01T07:48:41;96705.41;;;3.99;61.73
73024;BME280;61199;47.526;8.538;2023-03-01T07:51:07;96716.44;;;4.03;62.01
73024;BME280;61199;47.526;8.538;2023-03-01T07:53:34;96707.31;;;4.11;61.76
73024;BME280;61199;47.526;8.538;2023-03-01T07:56:11;96706.25;;;4.29;61.10
73024;BME280;61199;47.526;8.538;2023-03-01T07:58:40;96707.59;;;4.21;61.29
73024;BME280;61199;47.526;8.538;2023-03-01T08:01:09;96700.84;;;4.18;61.01
73024;BME280;61199;47.526;8.538;2023-03-01T08:03:37;96689.53;;;4.19;61.32
73024;BME280;61199;47.526;8.538;2023-03-01T08:06:06;96698.66;;;3.97;61.40
73024;BME280;61199;47.526;8.538;2023-03-01T08:08:33;96695.22;;;3.96;61.88
73024;BME280;61199;47.526;8.538;2023-03-01T08:11:01;96694.31;;;3.97;62.02
73024;BME280;61199;47.526;8.538;2023-03-01T08:13:29;96701.47;;;4.08;61.83
73024;BME280;61199;47.526;8.538;2023-03-01T08:16:01;96698.78;;;4.09;61.58
73024;BME280;61199;47.526;8.538;2023-03-01T08:18:28;96696.41;;;4.20;61.10
73024;BME280;61199;47.526;8.538;2023-03-01T08:20:54;96697.97;;;4.23;60.84
73024;BME280;61199;47.526;8.538;2023-03-01T08:23:21;96701.75;;;4.17;61.40
73024;BME280;61199;47.526;8.538;2023-03-01T08:25:48;96692.78;;;4.09;61.41
73024;BME280;61199;47.526;8.538;2023-03-01T08:28:14;96691.13;;;3.92;61.49
73024;BME280;61199;47.526;8.538;2023-03-01T08:30:40;96690.97;;;3.95;61.51
73024;BME280;61199;47.526;8.538;2023-03-01T08:33:06;96699.06;;;3.75;62.63
73024;BME280;61199;47.526;8.538;2023-03-01T08:35:33;96700.44;;;3.51;62.65
73024;BME280;61199;47.526;8.538;2023-03-01T08:37:59;96698.47;;;3.70;62.77
73024;BME280;61199;47.526;8.538;2023-03-01T08:40:26;96678.56;;;3.86;62.35
73024;BME280;61199;47.526;8.538;2023-03-01T08:42:52;96687.38;;;3.68;63.32
73024;BME280;61199;47.526;8.538;2023-03-01T08:45:18;96682.06;;;3.85;62.71
73024;BME280;61199;47.526;8.538;2023-03-01T08:47:45;96678.75;;;3.83;62.16
73024;BME280;61199;47.526;8.538;2023-03-01T08:50:11;96684.81;;;3.82;61.88
73024;BME280;61199;47.526;8.538;2023-03-01T08:52:38;96687.88;;;3.59;62.76
73024;BME280;61199;47.526;8.538;2023-03-01T08:55:05;96683.78;;;3.55;62.88
73024;BME280;61199;47.526;8.538;2023-03-01T08:57:31;96686.13;;;3.60;62.81
73024;BME280;61199;47.526;8.538;2023-03-01T08:59:58;96689.25;;;3.35;64.08
73024;BME280;61199;47.526;8.538;2023-03-01T09:02:24;96687.81;;;3.45;63.59
73024;BME280;61199;47.526;8.538;2023-03-01T09:04:50;96684.53;;;3.73;63.12
73024;BME280;61199;47.526;8.538;2023-03-01T09:07:17;96680.22;;;3.87;62.22
73024;BME280;61199;47.526;8.538;2023-03-01T09:09:43;96686.63;;;3.66;63.25
73024;BME280;61199;47.526;8.538;2023-03-01T09:12:09;96684.56;;;3.57;62.98
73024;BME280;61199;47.526;8.538;2023-03-01T09:14:36;96687.66;;;3.48;63.65
73024;BME280;61199;47.526;8.538;2023-03-01T09:17:04;96686.75;;;3.34;63.58
73024;BME280;61199;47.526;8.538;2023-03-01T09:19:31;96678.25;;;3.16;64.69
73024;BME280;61199;47.526;8.538;2023-03-01T09:21:57;96677.47;;;3.30;64.40
73024;BME280;61199;47.526;8.538;2023-03-01T09:24:24;96674.88;;;3.61;63.05
73024;BME280;61199;47.526;8.538;2023-03-01T09:26:53;96669.34;;;3.51;63.32
73024;BME280;61199;47.526;8.538;2023-03-01T09:29:20;96669.47;;;3.34;64.00
73024;BME280;61199;47.526;8.538;2023-03-01T09:31:47;96673.19;;;3.44;63.63
73024;BME280;61199;47.526;8.538;2023-03-01T09:34:13;96670.16;;;3.67;62.84
73024;BME280;61199;47.526;8.538;2023-03-01T09:36:48;96670.97;;;3.68;62.44
73024;BME280;61199;47.526;8.538;2023-03-01T09:39:14;96663.41;;;3.65;62.83
73024;BME280;61199;47.526;8.538;2023-03-01T09:41:44;96662.84;;;3.44;63.66
73024;BME280;61199;47.526;8.538;2023-03-01T09:47:05;96674.19;;;3.57;64.27
73024;BME280;61199;47.526;8.538;2023-03-01T09:49:39;96676.88;;;3.56;64.38
73024;BME280;61199;47.526;8.538;2023-03-01T09:52:43;96675.59;;;3.63;63.31
73024;BME280;61199;47.526;8.538;2023-03-01T09:55:20;96674.09;;;3.59;63.30
73024;BME280;61199;47.526;8.538;2023-03-01T09:57:51;96668.13;;;3.72;62.56
73024;BME280;61199;47.526;8.538;2023-03-01T10:00:24;96663.28;;;3.82;62.38
73024;BME280;61199;47.526;8.538;2023-03-01T10:03:17;96654.84;;;3.78;62.54
73024;BME280;61199;47.526;8.538;2023-03-01T10:06:11;96653.97;;;3.93;62.09
73024;BME280;61199;47.526;8.538;2023-03-01T10:09:00;96648.06;;;4.05;61.64
73024;BME280;61199;47.526;8.538;2023-03-01T10:11:31;96642.38;;;3.85;62.20
73024;BME280;61199;47.526;8.538;2023-03-01T10:16:42;96656.75;;;4.04;61.25
73024;BME280;61199;47.526;8.538;2023-03-01T10:19:13;96645.66;;;4.02;61.37
73024;BME280;61199;47.526;8.538;2023-03-01T10:21:44;96643.22;;;3.99;61.46
73024;BME280;61199;47.526;8.538;2023-03-01T10:24:17;96643.03;;;3.88;62.10
73024;BME280;61199;47.526;8.538;2023-03-01T10:26:55;96646.34;;;3.90;62.29
73024;BME280;61199;47.526;8.538;2023-03-01T10:29:48;96633.88;;;3.97;61.23
73024;BME280;61199;47.526;8.538;2023-03-01T10:32:16;96641.84;;;3.94;62.14
73024;BME280;61199;47.526;8.538;2023-03-01T10:34:43;96631.38;;;3.95;62.00
73024;BME280;61199;47.526;8.538;2023-03-01T10:37:13;96635.44;;;3.99;61.61
73024;BME280;61199;47.526;8.538;2023-03-01T10:40:04;96636.50;;;4.11;61.55
73024;BME280;61199;47.526;8.538;2023-03-01T10:42:48;96629.06;;;3.91;61.70
73024;BME280;61199;47.526;8.538;2023-03-01T10:45:35;96623.06;;;4.04;61.42
73024;BME280;61199;47.526;8.538;2023-03-01T10:48:12;96620.41;;;4.20;60.80
73024;BME280;61199;47.526;8.538;2023-03-01T10:50:41;96622.53;;;4.13;60.98
73024;BME280;61199;47.526;8.538;2023-03-01T10:58:26;96617.44;;;4.40;60.74
73024;BME280;61199;47.526;8.538;2023-03-01T11:03:41;96620.88;;;4.40;60.31
73024;BME280;61199;47.526;8.538;2023-03-01T11:08:44;96626.13;;;4.11;61.74
73024;BME280;61199;47.526;8.538;2023-03-01T11:11:31;96617.47;;;4.26;61.45
73024;BME280;61199;47.526;8.538;2023-03-01T11:14:06;96621.22;;;4.06;61.31
73024;BME280;61199;47.526;8.538;2023-03-01T11:17:15;96623.06;;;4.04;61.52
73024;BME280;61199;47.526;8.538;2023-03-01T11:19:59;96612.94;;;4.29;61.36
73024;BME280;61199;47.526;8.538;2023-03-01T11:22:28;96606.63;;;4.33;60.59
73024;BME280;61199;47.526;8.538;2023-03-01T11:24:55;96612.25;;;3.98;61.28
73024;BME280;61199;47.526;8.538;2023-03-01T11:27:38;96608.63;;;3.86;61.98
73024;BME280;61199;47.526;8.538;2023-03-01T11:35:36;96614.00;;;3.97;61.62
73024;BME280;61199;47.526;8.538;2023-03-01T11:38:21;96617.56;;;3.81;62.44
73024;BME280;61199;47.526;8.538;2023-03-01T11:40:57;96617.13;;;3.88;61.99
73024;BME280;61199;47.526;8.538;2023-03-01T11:46:34;96603.63;;;3.97;61.46
73024;BME280;61199;47.526;8.538;2023-03-01T11:52:42;96608.09;;;4.37;60.93
73024;BME280;61199;47.526;8.538;2023-03-01T11:55:26;96597.19;;;4.32;60.32
73024;BME280;61199;47.526;8.538;2023-03-01T11:58:09;96594.28;;;4.23;60.81
73024;BME280;61199;47.526;8.538;2023-03-01T12:03:27;96587.25;;;4.11;61.44
73024;BME280;61199;47.526;8.538;2023-03-01T12:06:24;96589.66;;;4.00;61.34
73024;BME280;61199;47.526;8.538;2023-03-01T12:09:23;96592.69;;;3.92;61.37
73024;BME280;61199;47.526;8.538;2023-03-01T12:17:40;96577.16;;;4.06;61.43
73024;BME280;61199;47.526;8.538;2023-03-01T12:20:39;96571.75;;;3.67;61.98
73024;BME280;61199;47.526;8.538;2023-03-01T12:26:19;96559.91;;;3.63;62.04
73024;BME280;61199;47.526;8.538;2023-03-01T12:42:47;96540.25;;;4.17;60.55
73024;BME280;61199;47.526;8.538;2023-03-01T12:45:57;96544.59;;;3.88;61.63
73024;BME280;61199;47.526;8.538;2023-03-01T12:51:07;96535.69;;;3.92;61.61
73024;BME280;61199;47.526;8.538;2023-03-01T12:53:40;96544.22;;;3.94;61.29
73024;BME280;61199;47.526;8.538;2023-03-01T12:56:13;96537.91;;;4.26;61.00
73024;BME280;61199;47.526;8.538;2023-03-01T12:59:02;96534.31;;;4.43;60.12
73024;BME280;61199;47.526;8.538;2023-03-01T13:01:48;96533.66;;;4.25;60.61
73024;BME280;61199;47.526;8.538;2023-03-01T13:04:25;96540.50;;;4.40;59.97
73024;BME280;61199;47.526;8.538;2023-03-01T13:07:23;96547.06;;;4.46;59.23
73024;BME280;61199;47.526;8.538;2023-03-01T13:10:20;96539.06;;;3.94;60.30
73024;BME280;61199;47.526;8.538;2023-03-01T13:13:01;96544.47;;;4.32;59.68
73024;BME280;61199;47.526;8.538;2023-03-01T13:15:34;96545.00;;;4.51;59.23
73024;BME280;61199;47.526;8.538;2023-03-01T13:28:50;96541.28;;;4.69;59.06
73024;BME280;61199;47.526;8.538;2023-03-01T13:38:56;96529.00;;;4.58;60.07
73024;BME280;61199;47.526;8.538;2023-03-01T13:44:21;96531.41;;;4.88;59.20
73024;BME280;61199;47.526;8.538;2023-03-01T13:46:53;96527.63;;;5.06;57.89
73024;BME280;61199;47.526;8.538;2023-03-01T13:49:25;96529.25;;;4.94;57.15
73024;BME280;61199;47.526;8.538;2023-03-01T13:51:58;96543.25;;;4.51;58.15
73024;BME280;61199;47.526;8.538;2023-03-01T13:54:29;96543.63;;;4.45;58.85
73024;BME280;61199;47.526;8.538;2023-03-01T13:56:58;96545.66;;;4.54;58.49
73024;BME280;61199;47.526;8.538;2023-03-01T13:59:25;96553.38;;;4.82;58.01
73024;BME280;61199;47.526;8.538;2023-03-01T14:01:54;96555.00;;;4.97;57.74
73024;BME280;61199;47.526;8.538;2023-03-01T14:07:08;96553.50;;;4.81;57.71
73024;BME280;61199;47.526;8.538;2023-03-01T14:09:38;96556.66;;;4.72;58.25
73024;BME280;61199;47.526;8.538;2023-03-01T14:15:01;96557.47;;;4.72;58.08
73024;BME280;61199;47.526;8.538;2023-03-01T14:17:44;96552.34;;;4.58;57.66
73024;BME280;61199;47.526;8.538;2023-03-01T14:22:46;96547.00;;;4.47;57.76
73024;BME280;61199;47.526;8.538;2023-03-01T14:25:20;96558.66;;;4.40;58.71
73024;BME280;61199;47.526;8.538;2023-03-01T14:27:55;96555.97;;;4.14;58.76
73024;BME280;61199;47.526;8.538;2023-03-01T14:30:31;96556.16;;;3.83;59.74
73024;BME280;61199;47.526;8.538;2023-03-01T14:33:01;96557.00;;;4.11;59.43
73024;BME280;61199;47.526;8.538;2023-03-01T14:35:30;96548.47;;;4.09;58.90
73024;BME280;61199;47.526;8.538;2023-03-01T14:37:57;96557.00;;;3.97;59.48
73024;BME280;61199;47.526;8.538;2023-03-01T14:40:28;96549.88;;;4.01;59.96
73024;BME280;61199;47.526;8.538;2023-03-01T14:42:57;96550.31;;;4.07;60.04
73024;BME280;61199;47.526;8.538;2023-03-01T14:45:27;96536.28;;;4.11;59.46
73024;BME280;61199;47.526;8.538;2023-03-01T14:47:55;96526.81;;;4.24;59.18
73024;BME280;61199;47.526;8.538;2023-03-01T14:50:30;96523.28;;;4.25;59.21
73024;BME280;61199;47.526;8.538;2023-03-01T14:53:00;96522.88;;;4.45;58.23
73024;BME280;61199;47.526;8.538;2023-03-01T14:55:40;96520.81;;;4.64;57.72
73024;BME280;61199;47.526;8.538;2023-03-01T14:58:15;96533.56;;;4.81;57.36
73024;BME280;61199;47.526;8.538;2023-03-01T15:00:50;96522.41;;;4.93;57.46
73024;BME280;61199;47.526;8.538;2023-03-01T15:03:25;96519.97;;;5.04;56.84
73024;BME280;61199;47.526;8.538;2023-03-01T15:05:54;96531.63;;;5.11;56.23
73024;BME280;61199;47.526;8.538;2023-03-01T15:08:23;96526.41;;;5.11;56.34